sensor_id;sensor_type;location;lat;lon;timestamp;pressure;altitude;pressure_sealevel;temperature;humidity
46942;BME280;32676;52.630;4.896;2023-03-13T00:01:27;102366.34;;;8.69;88.95
46942;BME280;32676;52.630;4.896;2023-03-13T00:03:54;102364.63;;;8.70;89.05
46942;BME280;32676;52.630;4.896;2023-03-13T00:06:23;102370.75;;;8.73;89.07
46942;BME280;32676;52.630;4.896;2023-03-13T00:08:52;102372.47;;;8.74;89.14
46942;BME280;32676;52.630;4.896;2023-03-13T00:11:19;102370.75;;;8.73;89.05
46942;BME280;32676;52.630;4.896;2023-03-13T00:13:46;102372.47;;;8.74;89.09
46942;BME280;32676;52.630;4.896;2023-03-13T00:16:15;102384.72;;;8.75;89.17
46942;BME280;32676;52.630;4.896;2023-03-13T00:18:44;102388.22;;;8.77;89.19
46942;BME280;32676;52.630;4.896;2023-03-13T00:21:11;102391.72;;;8.79;89.26
46942;BME280;32676;52.630;4.896;2023-03-13T00:23:39;102393.47;;;8.80;89.31
46942;BME280;32676;52.630;4.896;2023-03-13T00:26:08;102399.59;;;8.82;89.37
46942;BME280;32676;52.630;4.896;2023-03-13T00:28:36;102405.69;;;8.83;89.67
46942;BME280;32676;52.630;4.896;2023-03-13T00:31:05;102416.19;;;8.84;89.56
46942;BME280;32676;52.630;4.896;2023-03-13T00:33:31;102413.56;;;8.86;89.75
46942;BME280;32676;52.630;4.896;2023-03-13T00:35:59;102410.06;;;8.87;89.69
46942;BME280;32676;52.630;4.896;2023-03-13T00:38:26;102413.56;;;8.86;89.57
46942;BME280;32676;52.630;4.896;2023-03-13T00:40:59;102420.53;;;8.89;89.86
46942;BME280;32676;52.630;4.896;2023-03-13T00:43:26;102428.41;;;8.89;89.89
46942;BME280;32676;52.630;4.896;2023-03-13T00:45:53;102405.69;;;8.81;89.88
46942;BME280;32676;52.630;4.896;2023-03-13T00:48:19;102422.28;;;8.88;90.13
46942;BME280;32676;52.630;4.896;2023-03-13T00:50:46;102417.91;;;8.89;90.17
46942;BME280;32676;52.630;4.896;2023-03-13T00:53:12;102421.41;;;8.91;90.25
46942;BME280;32676;52.630;4.896;2023-03-13T00:55:39;102417.94;;;8.90;90.57
46942;BME280;32676;52.630;4.896;2023-03-13T00:58:17;102422.28;;;8.91;90.68
46942;BME280;32676;52.630;4.896;2023-03-13T01:00:43;102417.06;;;8.90;90.74
46942;BME280;32676;52.630;4.896;2023-03-13T01:03:10;102418.78;;;8.91;90.85
46942;BME280;32676;52.630;4.896;2023-03-13T01:05:36;102416.16;;;8.91;91.05
46942;BME280;32676;52.630;4.896;2023-03-13T01:08:03;102427.53;;;8.91;91.12
46942;BME280;32676;52.630;4.896;2023-03-13T01:10:30;102423.19;;;8.93;91.09
46942;BME280;32676;52.630;4.896;2023-03-13T01:12:56;102431.91;;;8.94;91.14
46942;BME280;32676;52.630;4.896;2023-03-13T01:15:24;102438.88;;;8.96;91.31
46942;BME280;32676;52.630;4.896;2023-03-13T01:17:51;102442.41;;;8.97;91.21
46942;BME280;32676;52.630;4.896;2023-03-13T01:20:17;102457.25;;;8.99;91.52
46942;BME280;32676;52.630;4.896;2023-03-13T01:22:44;102459.00;;;8.99;91.59
46942;BME280;32676;52.630;4.896;2023-03-13T01:25:10;102463.38;;;9.01;91.72
46942;BME280;32676;52.630;4.896;2023-03-13T01:27:36;102467.75;;;9.04;91.72
46942;BME280;32676;52.630;4.896;2023-03-13T01:30:04;102485.22;;;9.08;91.85
46942;BME280;32676;52.630;4.896;2023-03-13T01:32:33;102505.34;;;9.12;92.00
46942;BME280;32676;52.630;4.896;2023-03-13T01:35:00;102508.81;;;9.14;91.94
46942;BME280;32676;52.630;4.896;2023-03-13T01:37:34;102517.56;;;9.16;92.05
46942;BME280;32676;52.630;4.896;2023-03-13T01:40:09;102528.94;;;9.20;92.05
46942;BME280;32676;52.630;4.896;2023-03-13T01:42:50;102533.31;;;9.19;92.09
46942;BME280;32676;52.630;4.896;2023-03-13T01:45:57;102549.06;;;9.24;92.05
46942;BME280;32676;52.630;4.896;2023-03-13T01:48:30;102556.91;;;9.26;92.35
46942;BME280;32676;52.630;4.896;2023-03-13T01:51:02;102564.81;;;9.29;92.32
46942;BME280;32676;52.630;4.896;2023-03-13T01:53:31;102571.78;;;9.33;92.28
46942;BME280;32676;52.630;4.896;2023-03-13T01:55:59;102584.06;;;9.37;92.37
46942;BME280;32676;52.630;4.896;2023-03-13T01:58:30;102598.06;;;9.39;92.34
46942;BME280;32676;52.630;4.896;2023-03-13T02:00:57;102609.41;;;9.41;92.42
46942;BME280;32676;52.630;4.896;2023-03-13T02:03:26;102626.91;;;9.45;92.46
46942;BME280;32676;52.630;4.896;2023-03-13T02:05:54;102626.06;;;9.46;92.58
46942;BME280;32676;52.630;4.896;2023-03-13T02:08:24;102633.91;;;9.46;92.68
46942;BME280;32676;52.630;4.896;2023-03-13T02:10:59;102647.03;;;9.52;92.83
46942;BME280;32676;52.630;4.896;2023-03-13T02:13:29;102661.03;;;9.54;92.78
46942;BME280;32676;52.630;4.896;2023-03-13T02:15:56;102680.28;;;9.59;92.84
46942;BME280;32676;52.630;4.896;2023-03-13T02:18:22;102687.31;;;9.60;93.07
46942;BME280;32676;52.630;4.896;2023-03-13T02:20:55;102700.41;;;9.65;93.22
46942;BME280;32676;52.630;4.896;2023-03-13T02:23:31;102718.81;;;9.70;93.36
46942;BME280;32676;52.630;4.896;2023-03-13T02:26:02;102750.31;;;9.76;93.59
46942;BME280;32676;52.630;4.896;2023-03-13T02:28:30;102771.31;;;9.82;93.90
46942;BME280;32676;52.630;4.896;2023-03-13T02:30:58;102787.97;;;9.86;93.84
46942;BME280;32676;52.630;4.896;2023-03-13T02:33:26;102815.13;;;9.92;94.07
46942;BME280;32676;52.630;4.896;2023-03-13T02:35:54;102840.53;;;9.99;94.22
46942;BME280;32676;52.630;4.896;2023-03-13T02:38:23;102857.19;;;10.05;94.29
46942;BME280;32676;52.630;4.896;2023-03-13T02:40:51;102872.97;;;10.08;94.35
46942;BME280;32676;52.630;4.896;2023-03-13T02:43:23;102893.97;;;10.14;94.55
46942;BME280;32676;52.630;4.896;2023-03-13T02:46:06;102906.22;;;10.15;94.55
46942;BME280;32676;52.630;4.896;2023-03-13T02:48:35;102933.41;;;10.23;94.53
46942;BME280;32676;52.630;4.896;2023-03-13T02:51:05;102956.19;;;10.27;94.59
46942;BME280;32676;52.630;4.896;2023-03-13T02:53:34;102968.50;;;10.31;94.60
46942;BME280;32676;52.630;4.896;2023-03-13T02:56:02;102974.66;;;10.33;94.56
46942;BME280;32676;52.630;4.896;2023-03-13T02:58:37;102983.44;;;10.35;94.44
46942;BME280;32676;52.630;4.896;2023-03-13T03:01:04;102991.28;;;10.38;94.66
46942;BME280;32676;52.630;4.896;2023-03-13T03:03:32;102993.94;;;10.38;94.45
46942;BME280;32676;52.630;4.896;2023-03-13T03:05:59;102995.69;;;10.40;94.41
46942;BME280;32676;52.630;4.896;2023-03-13T03:08:25;103002.72;;;10.41;94.39
46942;BME280;32676;52.630;4.896;2023-03-13T03:10:52;103000.97;;;10.43;94.33
46942;BME280;32676;52.630;4.896;2023-03-13T03:13:18;103007.97;;;10.44;94.08
46942;BME280;32676;52.630;4.896;2023-03-13T03:15:46;103017.63;;;10.46;94.20
46942;BME280;32676;52.630;4.896;2023-03-13T03:18:12;103020.28;;;10.48;94.04
46942;BME280;32676;52.630;4.896;2023-03-13T03:20:39;103027.25;;;10.49;93.80
46942;BME280;32676;52.630;4.896;2023-03-13T03:23:05;103032.53;;;10.50;93.67
46942;BME280;32676;52.630;4.896;2023-03-13T03:25:32;103041.28;;;10.51;93.57
46942;BME280;32676;52.630;4.896;2023-03-13T03:27:58;103041.31;;;10.54;93.15
46942;BME280;32676;52.630;4.896;2023-03-13T03:30:25;103045.66;;;10.55;93.02
46942;BME280;32676;52.630;4.896;2023-03-13T03:32:53;103051.81;;;10.59;93.12
46942;BME280;32676;52.630;4.896;2023-03-13T03:35:19;103063.25;;;10.59;92.58
46942;BME280;32676;52.630;4.896;2023-03-13T03:37:46;103065.84;;;10.62;92.61
46942;BME280;32676;52.630;4.896;2023-03-13T03:40:12;103090.44;;;10.64;92.42
46942;BME280;32676;52.630;4.896;2023-03-13T03:42:39;103070.28;;;10.65;92.19
46942;BME280;32676;52.630;4.896;2023-03-13T03:45:06;103091.31;;;10.66;91.69
46942;BME280;32676;52.630;4.896;2023-03-13T03:47:33;103090.41;;;10.67;91.91
46942;BME280;32676;52.630;4.896;2023-03-13T03:50:01;103093.94;;;10.69;91.56
46942;BME280;32676;52.630;4.896;2023-03-13T03:52:28;103101.84;;;10.71;91.83
46942;BME280;32676;52.630;4.896;2023-03-13T03:54:54;103108.84;;;10.72;91.61
46942;BME280;32676;52.630;4.896;2023-03-13T03:57:21;103100.97;;;10.73;91.42
46942;BME280;32676;52.630;4.896;2023-03-13T03:59:47;103101.84;;;10.74;91.40
46942;BME280;32676;52.630;4.896;2023-03-13T04:02:14;103114.13;;;10.76;91.29
46942;BME280;32676;52.630;4.896;2023-03-13T04:04:41;103107.97;;;10.74;91.04
46942;BME280;32676;52.630;4.896;2023-03-13T04:07:09;103123.78;;;10.78;91.04
46942;BME280;32676;52.630;4.896;2023-03-13T04:09:36;103125.53;;;10.79;91.20
46942;BME280;32676;52.630;4.896;2023-03-13T04:12:02;103113.25;;;10.78;91.15
46942;BME280;32676;52.630;4.896;2023-03-13T04:14:29;103122.03;;;10.80;91.17
46942;BME280;32676;52.630;4.896;2023-03-13T04:16:55;103123.81;;;10.81;90.88
46942;BME280;32676;52.630;4.896;2023-03-13T04:19:22;103118.53;;;10.81;90.89
46942;BME280;32676;52.630;4.896;2023-03-13T04:21:48;103123.81;;;10.81;91.22
46942;BME280;32676;52.630;4.896;2023-03-13T04:24:16;103118.53;;;10.81;91.21
46942;BME280;32676;52.630;4.896;2023-03-13T04:26:42;103097.47;;;10.74;91.01
46942;BME280;32676;52.630;4.896;2023-03-13T04:29:09;103088.72;;;10.75;91.52
46942;BME280;32676;52.630;4.896;2023-03-13T04:31:35;103085.19;;;10.73;91.86
46942;BME280;32676;52.630;4.896;2023-03-13T04:34:02;103098.34;;;10.76;91.90
46942;BME280;32676;52.630;4.896;2023-03-13T04:36:28;103101.84;;;10.79;91.70
46942;BME280;32676;52.630;4.896;2023-03-13T04:38:55;103091.34;;;10.75;91.82
46942;BME280;32676;52.630;4.896;2023-03-13T04:41:23;103101.00;;;10.80;91.50
46942;BME280;32676;52.630;4.896;2023-03-13T04:43:49;103097.47;;;10.78;91.54
46942;BME280;32676;52.630;4.896;2023-03-13T04:46:15;103105.38;;;10.82;91.76
46942;BME280;32676;52.630;4.896;2023-03-13T04:48:42;103113.28;;;10.84;91.34
46942;BME280;32676;52.630;4.896;2023-03-13T04:51:09;103122.03;;;10.86;91.37
46942;BME280;32676;52.630;4.896;2023-03-13T04:53:35;103129.94;;;10.89;91.15
46942;BME280;32676;52.630;4.896;2023-03-13T04:56:02;103131.72;;;10.90;91.05
46942;BME280;32676;52.630;4.896;2023-03-13T04:58:30;103142.22;;;10.93;90.77
46942;BME280;32676;52.630;4.896;2023-03-13T05:00:57;103148.38;;;10.92;90.58
46942;BME280;32676;52.630;4.896;2023-03-13T05:03:23;103162.44;;;10.97;90.34
46942;BME280;32676;52.630;4.896;2023-03-13T05:05:49;103168.59;;;11.01;90.24
46942;BME280;32676;52.630;4.896;2023-03-13T05:08:16;103174.72;;;11.01;90.17
46942;BME280;32676;52.630;4.896;2023-03-13T05:10:43;103186.13;;;11.02;90.12
46942;BME280;32676;52.630;4.896;2023-03-13T05:13:09;103211.59;;;11.10;89.58
46942;BME280;32676;52.630;4.896;2023-03-13T05:15:37;103221.25;;;11.14;89.61
46942;BME280;32676;52.630;4.896;2023-03-13T05:18:04;103230.91;;;11.16;89.06
46942;BME280;32676;52.630;4.896;2023-03-13T05:20:30;103237.06;;;11.18;88.64
46942;BME280;32676;52.630;4.896;2023-03-13T05:22:57;103234.44;;;11.21;88.56
46942;BME280;32676;52.630;4.896;2023-03-13T05:25:23;103246.72;;;11.22;88.15
46942;BME280;32676;52.630;4.896;2023-03-13T05:27:50;103248.50;;;11.23;87.70
46942;BME280;32676;52.630;4.896;2023-03-13T05:30:16;103250.22;;;11.24;87.29
46942;BME280;32676;52.630;4.896;2023-03-13T05:32:45;103257.25;;;11.25;87.06
46942;BME280;32676;52.630;4.896;2023-03-13T05:35:15;103266.03;;;11.27;86.78
46942;BME280;32676;52.630;4.896;2023-03-13T05:37:42;103266.06;;;11.30;86.37
46942;BME280;32676;52.630;4.896;2023-03-13T05:40:10;103273.06;;;11.31;86.23
46942;BME280;32676;52.630;4.896;2023-03-13T05:42:38;103267.81;;;11.28;86.11
46942;BME280;32676;52.630;4.896;2023-03-13T05:45:05;103252.03;;;11.28;86.13
46942;BME280;32676;52.630;4.896;2023-03-13T05:47:33;103249.38;;;11.26;86.16
46942;BME280;32676;52.630;4.896;2023-03-13T05:50:01;103236.22;;;11.25;86.00
46942;BME280;32676;52.630;4.896;2023-03-13T05:52:28;103229.16;;;11.24;86.10
46942;BME280;32676;52.630;4.896;2023-03-13T05:54:54;103228.31;;;11.25;85.67
46942;BME280;32676;52.630;4.896;2023-03-13T05:57:21;103232.69;;;11.26;85.53
46942;BME280;32676;52.630;4.896;2023-03-13T05:59:47;103234.47;;;11.27;85.59
46942;BME280;32676;52.630;4.896;2023-03-13T06:02:14;103230.06;;;11.26;85.25
46942;BME280;32676;52.630;4.896;2023-03-13T06:04:40;103224.78;;;11.26;85.44
46942;BME280;32676;52.630;4.896;2023-03-13T06:07:08;103216.00;;;11.24;85.36
46942;BME280;32676;52.630;4.896;2023-03-13T06:09:35;103211.66;;;11.23;85.36
46942;BME280;32676;52.630;4.896;2023-03-13T06:12:02;103207.25;;;11.23;85.39
46942;BME280;32676;52.630;4.896;2023-03-13T06:14:28;103213.38;;;11.24;85.02
46942;BME280;32676;52.630;4.896;2023-03-13T06:16:55;103215.16;;;11.25;84.78
46942;BME280;32676;52.630;4.896;2023-03-13T06:19:21;103223.06;;;11.26;84.82
46942;BME280;32676;52.630;4.896;2023-03-13T06:21:51;103216.88;;;11.26;84.38
46942;BME280;32676;52.630;4.896;2023-03-13T06:24:19;103211.63;;;11.26;84.24
46942;BME280;32676;52.630;4.896;2023-03-13T06:26:47;103199.38;;;11.25;84.24
46942;BME280;32676;52.630;4.896;2023-03-13T06:29:13;103185.31;;;11.23;84.29
46942;BME280;32676;52.630;4.896;2023-03-13T06:31:40;103196.72;;;11.25;84.36
46942;BME280;32676;52.630;4.896;2023-03-13T06:34:07;103202.88;;;11.27;84.84
46942;BME280;32676;52.630;4.896;2023-03-13T06:36:34;103214.28;;;11.29;84.80
46942;BME280;32676;52.630;4.896;2023-03-13T06:39:01;103219.56;;;11.30;84.93
46942;BME280;32676;52.630;4.896;2023-03-13T06:41:32;103225.72;;;11.34;85.09
46942;BME280;32676;52.630;4.896;2023-03-13T06:43:58;103233.59;;;11.34;85.66
46942;BME280;32676;52.630;4.896;2023-03-13T06:46:24;103240.63;;;11.37;85.32
46942;BME280;32676;52.630;4.896;2023-03-13T06:48:51;103240.63;;;11.40;85.48
46942;BME280;32676;52.630;4.896;2023-03-13T06:51:21;103241.50;;;11.40;86.04
46942;BME280;32676;52.630;4.896;2023-03-13T06:53:51;103239.78;;;11.39;86.17
46942;BME280;32676;52.630;4.896;2023-03-13T06:56:17;103234.47;;;11.36;85.87
46942;BME280;32676;52.630;4.896;2023-03-13T06:58:47;103243.28;;;11.41;86.35
46942;BME280;32676;52.630;4.896;2023-03-13T07:01:15;103243.28;;;11.41;86.48
46942;BME280;32676;52.630;4.896;2023-03-13T07:03:43;103234.50;;;11.39;86.33
46942;BME280;32676;52.630;4.896;2023-03-13T07:06:10;103230.09;;;11.40;86.32
46942;BME280;32676;52.630;4.896;2023-03-13T07:08:40;103231.88;;;11.39;86.35
46942;BME280;32676;52.630;4.896;2023-03-13T07:11:09;103215.19;;;11.40;86.60
46942;BME280;32676;52.630;4.896;2023-03-13T07:13:36;103222.22;;;11.41;86.61
46942;BME280;32676;52.630;4.896;2023-03-13T07:16:07;103222.22;;;11.41;86.39
46942;BME280;32676;52.630;4.896;2023-03-13T07:18:35;103228.34;;;11.42;86.52
46942;BME280;32676;52.630;4.896;2023-03-13T07:21:03;103224.88;;;11.43;86.27
46942;BME280;32676;52.630;4.896;2023-03-13T07:23:31;103223.97;;;11.42;86.22
46942;BME280;32676;52.630;4.896;2023-03-13T07:25:59;103228.38;;;11.43;86.12
46942;BME280;32676;52.630;4.896;2023-03-13T07:28:27;103222.25;;;11.44;86.08
46942;BME280;32676;52.630;4.896;2023-03-13T07:31:01;103233.66;;;11.46;86.06
46942;BME280;32676;52.630;4.896;2023-03-13T07:33:29;103239.78;;;11.48;86.00
46942;BME280;32676;52.630;4.896;2023-03-13T07:35:56;103231.88;;;11.47;85.78
46942;BME280;32676;52.630;4.896;2023-03-13T07:38:22;103221.34;;;11.47;85.16
46942;BME280;32676;52.630;4.896;2023-03-13T07:40:49;103225.75;;;11.46;85.40
46942;BME280;32676;52.630;4.896;2023-03-13T07:43:16;103222.22;;;11.47;85.25
46942;BME280;32676;52.630;4.896;2023-03-13T07:45:53;103231.00;;;11.49;85.14
46942;BME280;32676;52.630;4.896;2023-03-13T07:48:21;103239.81;;;11.51;85.27
46942;BME280;32676;52.630;4.896;2023-03-13T07:50:49;103252.09;;;11.56;85.51
46942;BME280;32676;52.630;4.896;2023-03-13T07:53:16;103275.78;;;11.60;85.50
46942;BME280;32676;52.630;4.896;2023-03-13T07:55:53;103267.03;;;11.58;85.42
46942;BME280;32676;52.630;4.896;2023-03-13T07:58:20;103278.44;;;11.62;85.42
46942;BME280;32676;52.630;4.896;2023-03-13T08:00:47;103292.50;;;11.64;85.20
46942;BME280;32676;52.630;4.896;2023-03-13T08:03:13;103305.69;;;11.70;85.31
46942;BME280;32676;52.630;4.896;2023-03-13T08:05:40;103308.31;;;11.70;84.80
46942;BME280;32676;52.630;4.896;2023-03-13T08:08:07;103306.56;;;11.72;84.63
46942;BME280;32676;52.630;4.896;2023-03-13T08:10:34;103311.84;;;11.75;84.33
46942;BME280;32676;52.630;4.896;2023-03-13T08:13:01;103296.03;;;11.72;83.99
46942;BME280;32676;52.630;4.896;2023-03-13T08:15:28;103292.53;;;11.70;84.04
46942;BME280;32676;52.630;4.896;2023-03-13T08:17:54;103283.75;;;11.68;83.76
46942;BME280;32676;52.630;4.896;2023-03-13T08:20:22;103250.38;;;11.61;83.54
46942;BME280;32676;52.630;4.896;2023-03-13T08:22:48;103271.44;;;11.67;83.25
46942;BME280;32676;52.630;4.896;2023-03-13T08:25:16;103299.56;;;11.74;83.14
46942;BME280;32676;52.630;4.896;2023-03-13T08:27:43;103303.97;;;11.75;83.04
46942;BME280;32676;52.630;4.896;2023-03-13T08:30:10;103322.41;;;11.81;83.19
46942;BME280;32676;52.630;4.896;2023-03-13T08:32:37;103341.75;;;11.86;82.95
46942;BME280;32676;52.630;4.896;2023-03-13T08:35:04;103351.41;;;11.89;82.74
46942;BME280;32676;52.630;4.896;2023-03-13T08:37:30;103359.34;;;11.90;83.09
46942;BME280;32676;52.630;4.896;2023-03-13T08:39:57;103339.97;;;11.85;83.61
46942;BME280;32676;52.630;4.896;2023-03-13T08:42:25;103335.56;;;11.86;83.52
46942;BME280;32676;52.630;4.896;2023-03-13T08:44:51;103340.84;;;11.89;83.98
46942;BME280;32676;52.630;4.896;2023-03-13T08:47:17;103352.25;;;11.89;83.74
46942;BME280;32676;52.630;4.896;2023-03-13T08:49:44;103366.38;;;11.95;83.62
46942;BME280;32676;52.630;4.896;2023-03-13T08:52:11;103376.06;;;11.97;83.20
46942;BME280;32676;52.630;4.896;2023-03-13T08:54:37;103386.59;;;12.02;82.27
46942;BME280;32676;52.630;4.896;2023-03-13T08:57:04;103406.81;;;12.06;82.30
46942;BME280;32676;52.630;4.896;2023-03-13T08:59:31;103433.22;;;12.15;81.59
46942;BME280;32676;52.630;4.896;2023-03-13T09:01:58;103451.66;;;12.18;81.38
46942;BME280;32676;52.630;4.896;2023-03-13T09:04:24;103461.31;;;12.22;80.99
46942;BME280;32676;52.630;4.896;2023-03-13T09:06:51;103480.69;;;12.24;80.65
46942;BME280;32676;52.630;4.896;2023-03-13T09:09:17;103496.53;;;12.31;80.43
46942;BME280;32676;52.630;4.896;2023-03-13T09:11:44;103521.16;;;12.36;79.67
46942;BME280;32676;52.630;4.896;2023-03-13T09:14:10;103545.78;;;12.44;79.08
46942;BME280;32676;52.630;4.896;2023-03-13T09:16:38;103559.00;;;12.47;79.30
46942;BME280;32676;52.630;4.896;2023-03-13T09:19:06;103573.94;;;12.51;79.50
46942;BME280;32676;52.630;4.896;2023-03-13T09:21:34;103588.94;;;12.55;79.10
46942;BME280;32676;52.630;4.896;2023-03-13T09:24:01;103595.09;;;12.57;78.38
46942;BME280;32676;52.630;4.896;2023-03-13T09:26:28;103586.28;;;12.55;77.45
46942;BME280;32676;52.630;4.896;2023-03-13T09:28:54;103619.69;;;12.62;76.72
46942;BME280;32676;52.630;4.896;2023-03-13T09:31:22;103617.09;;;12.65;75.98
46942;BME280;32676;52.630;4.896;2023-03-13T09:33:51;103617.97;;;12.64;75.63
46942;BME280;32676;52.630;4.896;2023-03-13T09:36:19;103614.44;;;12.65;75.29
46942;BME280;32676;52.630;4.896;2023-03-13T09:38:46;103622.38;;;12.68;75.17
46942;BME280;32676;52.630;4.896;2023-03-13T09:41:21;103633.81;;;12.71;75.40
46942;BME280;32676;52.630;4.896;2023-03-13T09:43:50;103634.69;;;12.73;75.35
46942;BME280;32676;52.630;4.896;2023-03-13T09:46:22;103631.19;;;12.74;75.00
46942;BME280;32676;52.630;4.896;2023-03-13T09:48:54;103636.50;;;12.75;75.54
46942;BME280;32676;52.630;4.896;2023-03-13T09:51:25;103644.38;;;12.77;75.65
46942;BME280;32676;52.630;4.896;2023-03-13T09:53:57;103641.75;;;12.77;75.43
46942;BME280;32676;52.630;4.896;2023-03-13T09:56:30;103633.81;;;12.77;75.29
46942;BME280;32676;52.630;4.896;2023-03-13T09:58:59;103632.09;;;12.76;75.09
46942;BME280;32676;52.630;4.896;2023-03-13T10:01:28;103632.09;;;12.79;75.32
46942;BME280;32676;52.630;4.896;2023-03-13T10:04:05;103644.41;;;12.81;75.10
46942;BME280;32676;52.630;4.896;2023-03-13T10:06:34;103654.09;;;12.85;75.30
46942;BME280;32676;52.630;4.896;2023-03-13T10:09:15;103684.03;;;12.89;75.30
46942;BME280;32676;52.630;4.896;2023-03-13T10:11:50;103698.13;;;12.96;75.00
46942;BME280;32676;52.630;4.896;2023-03-13T10:14:19;103712.22;;;12.99;74.83
46942;BME280;32676;52.630;4.896;2023-03-13T10:16:50;103733.38;;;13.07;74.66
46942;BME280;32676;52.630;4.896;2023-03-13T10:19:26;103759.78;;;13.13;73.96
46942;BME280;32676;52.630;4.896;2023-03-13T10:21:54;103780.94;;;13.19;73.89
46942;BME280;32676;52.630;4.896;2023-03-13T10:24:29;103788.88;;;13.21;73.99
46942;BME280;32676;52.630;4.896;2023-03-13T10:26:57;103806.50;;;13.25;73.43
46942;BME280;32676;52.630;4.896;2023-03-13T10:29:26;103825.91;;;13.30;72.87
46942;BME280;32676;52.630;4.896;2023-03-13T10:31:56;103838.25;;;13.34;72.73
46942;BME280;32676;52.630;4.896;2023-03-13T10:34:25;103845.31;;;13.38;73.20
46942;BME280;32676;52.630;4.896;2023-03-13T10:36:58;103862.97;;;13.42;72.71
46942;BME280;32676;52.630;4.896;2023-03-13T10:39:26;103873.53;;;13.46;72.86
46942;BME280;32676;52.630;4.896;2023-03-13T10:41:58;103878.84;;;13.49;72.64
46942;BME280;32676;52.630;4.896;2023-03-13T10:44:33;103903.53;;;13.54;71.89
46942;BME280;32676;52.630;4.896;2023-03-13T10:47:01;103905.28;;;13.55;71.13
46942;BME280;32676;52.630;4.896;2023-03-13T10:49:31;103919.38;;;13.60;70.10
46942;BME280;32676;52.630;4.896;2023-03-13T10:52:00;103914.09;;;13.57;69.92
46942;BME280;32676;52.630;4.896;2023-03-13T10:54:28;103898.22;;;13.57;69.01
46942;BME280;32676;52.630;4.896;2023-03-13T10:57:19;103891.19;;;13.56;68.86
46942;BME280;32676;52.630;4.896;2023-03-13T10:59:47;103886.78;;;13.56;68.99
46942;BME280;32676;52.630;4.896;2023-03-13T11:02:34;103918.53;;;13.64;68.70
46942;BME280;32676;52.630;4.896;2023-03-13T11:05:28;103952.06;;;13.76;68.39
46942;BME280;32676;52.630;4.896;2023-03-13T11:07:55;103930.00;;;13.69;68.87
46942;BME280;32676;52.630;4.896;2023-03-13T11:10:23;103919.41;;;13.68;68.75
46942;BME280;32676;52.630;4.896;2023-03-13T11:12:51;103895.63;;;13.61;69.08
46942;BME280;32676;52.630;4.896;2023-03-13T11:15:22;103857.72;;;13.55;68.99
46942;BME280;32676;52.630;4.896;2023-03-13T11:17:55;103850.69;;;13.54;69.50
46942;BME280;32676;52.630;4.896;2023-03-13T11:20:27;103822.47;;;13.50;69.90
46942;BME280;32676;52.630;4.896;2023-03-13T11:23:08;103813.66;;;13.48;69.19
46942;BME280;32676;52.630;4.896;2023-03-13T11:25:40;103821.59;;;13.52;68.36
46942;BME280;32676;52.630;4.896;2023-03-13T11:28:21;103819.81;;;13.51;68.17
46942;BME280;32676;52.630;4.896;2023-03-13T11:31:04;103824.25;;;13.54;67.27
46942;BME280;32676;52.630;4.896;2023-03-13T11:33:39;103815.44;;;13.55;67.62
46942;BME280;32676;52.630;4.896;2023-03-13T11:36:18;103796.03;;;13.50;67.59
46942;BME280;32676;52.630;4.896;2023-03-13T11:38:47;103817.22;;;13.56;68.14
46942;BME280;32676;52.630;4.896;2023-03-13T11:41:22;103817.22;;;13.56;68.48
46942;BME280;32676;52.630;4.896;2023-03-13T11:44:16;103820.75;;;13.58;68.95
46942;BME280;32676;52.630;4.896;2023-03-13T11:46:48;103808.41;;;13.57;68.84
46942;BME280;32676;52.630;4.896;2023-03-13T11:49:34;103834.84;;;13.63;68.61
46942;BME280;32676;52.630;4.896;2023-03-13T11:52:07;103840.16;;;13.66;68.36
46942;BME280;32676;52.630;4.896;2023-03-13T11:57:46;103810.19;;;13.61;67.97
46942;BME280;32676;52.630;4.896;2023-03-13T12:00:27;103815.47;;;13.58;67.62
46942;BME280;32676;52.630;4.896;2023-03-13T12:02:59;103823.41;;;13.67;67.23
46942;BME280;32676;52.630;4.896;2023-03-13T12:05:35;103828.69;;;13.69;66.63
46942;BME280;32676;52.630;4.896;2023-03-13T12:08:08;103871.88;;;13.78;66.18
46942;BME280;32676;52.630;4.896;2023-03-13T12:10:38;103917.72;;;13.90;65.83
46942;BME280;32676;52.630;4.896;2023-03-13T12:13:12;103953.91;;;14.00;65.08
46942;BME280;32676;52.630;4.896;2023-03-13T12:15:44;103975.97;;;14.05;64.48
46942;BME280;32676;52.630;4.896;2023-03-13T12:18:17;103943.31;;;13.98;63.59
46942;BME280;32676;52.630;4.896;2023-03-13T12:20:50;103945.97;;;14.00;63.41
46942;BME280;32676;52.630;4.896;2023-03-13T12:23:25;103946.84;;;14.00;63.17
46942;BME280;32676;52.630;4.896;2023-03-13T12:25:57;103948.63;;;14.00;63.52
46942;BME280;32676;52.630;4.896;2023-03-13T12:28:30;103954.81;;;14.05;62.73
46942;BME280;32676;52.630;4.896;2023-03-13T12:31:06;103916.00;;;13.98;62.74
46942;BME280;32676;52.630;4.896;2023-03-13T12:33:39;103886.94;;;13.92;62.49
46942;BME280;32676;52.630;4.896;2023-03-13T12:36:12;103882.50;;;13.92;62.21
46942;BME280;32676;52.630;4.896;2023-03-13T12:38:46;103896.63;;;13.99;62.72
46942;BME280;32676;52.630;4.896;2023-03-13T12:41:18;103902.81;;;13.99;62.98
46942;BME280;32676;52.630;4.896;2023-03-13T12:43:50;103905.47;;;14.01;63.11
46942;BME280;32676;52.630;4.896;2023-03-13T12:46:40;103943.38;;;14.09;63.07
46942;BME280;32676;52.630;4.896;2023-03-13T12:49:32;103974.25;;;14.19;62.59
46942;BME280;32676;52.630;4.896;2023-03-13T12:55:17;104003.38;;;14.29;61.92
46942;BME280;32676;52.630;4.896;2023-03-13T12:58:09;104030.75;;;14.35;62.19
46942;BME280;32676;52.630;4.896;2023-03-13T13:00:41;104040.47;;;14.39;62.34
46942;BME280;32676;52.630;4.896;2023-03-13T13:03:19;104021.91;;;14.35;62.36
46942;BME280;32676;52.630;4.896;2023-03-13T13:06:06;103984.88;;;14.32;62.51
46942;BME280;32676;52.630;4.896;2023-03-13T13:08:36;103983.09;;;14.28;62.31
46942;BME280;32676;52.630;4.896;2023-03-13T13:11:35;103961.94;;;14.25;62.27